CheckWX is a tool to help pilots better visualize weather data.  It is not intended as a substitute for an official pre-flight weather briefing.

18:30:34 UTC

KAQO METAR
Llano Municipal Airport
Llano, Texas, USA
Current

41 mins ago

KAQO 221750Z AUTO 00000KT 9SM OVC006 15/13 A3000 RMK AO2
Observed
Feb-22 @ 17:50 UTC
Visibility
9 SM
Flight Rules
IFR
Cloud Levels
  • Overcast at 600' AGL
Temperature
15°C / 59°F
Dewpoint
13°C / 55°F
Humidity
88%
Altimeter
30" Hg
Pressure
1015.92 hPa
Previous

1 hour ago

KAQO 221730Z AUTO 00000KT 9SM OVC006 14/12 A3000 RMK AO2
Observed
Feb-22 @ 17:30 UTC
Visibility
9 SM
Flight Rules
IFR
Cloud Levels
  • Overcast at 600' AGL
Temperature
14°C / 57°F
Dewpoint
12°C / 54°F
Humidity
88%
Altimeter
30" Hg
Pressure
1015.92 hPa
Previous

1 hour ago

KAQO 221710Z AUTO 00000KT 8SM OVC005 14/12 A3001 RMK AO2
Observed
Feb-22 @ 17:10 UTC
Visibility
8 SM
Flight Rules
IFR
Cloud Levels
  • Overcast at 500' AGL
Temperature
14°C / 57°F
Dewpoint
12°C / 54°F
Humidity
88%
Altimeter
30.01" Hg
Pressure
1016.22 hPa